Time;durP1;ratioP1;P1;durP2;ratioP2;P2;SDS_P1;SDS_P2;PMS_P1;PMS_P2;Temp;Humidity;BMP_temperature;BMP_pressure;BME280_temperature;BME280_humidity;BME280_pressure;Samples;Min_cycle;Max_cycle;Signal;HPM_P1;HPM_P2
2023/05/24 00:01:56;;;;;;;21.27;5.40;;;;;;;8.26;100.00;102629.84;4965883;28;20449;-61
2023/05/24 00:04:23;;;;;;;22.15;5.05;;;;;;;8.24;100.00;102613.16;4967431;28;20049;-60
2023/05/24 00:06:49;;;;;;;17.83;5.32;;;;;;;8.25;100.00;102612.28;4967741;28;20054;-61
2023/05/24 00:09:14;;;;;;;17.10;4.53;;;;;;;8.26;100.00;102616.69;4968202;28;20382;-62
2023/05/24 00:11:40;;;;;;;20.40;5.13;;;;;;;8.28;100.00;102611.44;4972610;28;20538;-62
2023/05/24 00:14:05;;;;;;;14.65;4.53;;;;;;;8.29;100.00;102603.59;4967346;28;20078;-60
2023/05/24 00:16:31;;;;;;;14.90;4.65;;;;;;;8.30;100.00;102604.44;4968338;28;20050;-66
2023/05/24 00:18:57;;;;;;;21.08;4.90;;;;;;;8.29;100.00;102605.31;4972588;28;20023;-60
2023/05/24 00:21:23;;;;;;;16.95;5.22;;;;;;;8.29;100.00;102603.59;4971039;28;20099;-61
2023/05/24 00:23:50;;;;;;;19.92;4.95;;;;;;;8.24;100.00;102593.94;4969782;28;20054;-61
2023/05/24 00:26:15;;;;;;;14.57;4.85;;;;;;;8.22;100.00;102601.81;4971510;28;20049;-62
2023/05/24 00:28:41;;;;;;;19.15;4.95;;;;;;;8.22;100.00;102605.28;4971639;28;20023;-68
2023/05/24 00:31:07;;;;;;;20.58;5.45;;;;;;;8.22;100.00;102607.91;4971947;28;20026;-60
2023/05/24 00:33:32;;;;;;;15.27;4.78;;;;;;;8.20;100.00;102599.16;4971753;28;20094;-61
2023/05/24 00:35:57;;;;;;;22.65;5.15;;;;;;;8.20;100.00;102604.41;4980291;28;20031;-61
2023/05/24 00:38:24;;;;;;;19.80;4.90;;;;;;;8.16;100.00;102612.28;4986810;28;20055;-61
2023/05/24 00:40:49;;;;;;;24.48;4.80;;;;;;;8.17;100.00;102606.13;4969795;28;20169;-63
2023/05/24 00:43:15;;;;;;;17.15;4.40;;;;;;;8.15;100.00;102600.00;4971314;28;20098;-62
2023/05/24 00:45:40;;;;;;;17.80;5.50;;;;;;;8.14;100.00;102598.25;4972685;28;20030;-62
2023/05/24 00:48:06;;;;;;;14.20;4.65;;;;;;;8.13;100.00;102599.97;4971786;28;20106;-62
2023/05/24 00:50:32;;;;;;;22.92;5.57;;;;;;;8.12;100.00;102611.38;4973684;28;20516;-61
2023/05/24 00:52:59;;;;;;;21.38;5.45;;;;;;;8.19;100.00;102618.41;4986458;28;20067;-63
2023/05/24 00:55:25;;;;;;;18.20;4.88;;;;;;;8.27;100.00;102605.31;4971216;28;20027;-62
2023/05/24 00:57:51;;;;;;;22.58;6.00;;;;;;;8.32;100.00;102603.59;4970126;28;20034;-64
2023/05/24 01:00:17;;;;;;;25.50;6.13;;;;;;;8.29;100.00;102602.69;4986797;28;20023;-62
2023/05/24 01:02:42;;;;;;;23.80;5.68;;;;;;;8.30;100.00;102602.69;4972381;28;20023;-64
2023/05/24 01:05:08;;;;;;;27.90;6.55;;;;;;;8.24;100.00;102599.19;4973288;28;20109;-65
2023/05/24 01:07:45;;;;;;;19.83;4.90;;;;;;;8.20;100.00;102598.28;4979804;28;20062;-61
2023/05/24 01:10:16;;;;;;;21.10;5.72;;;;;;;8.21;100.00;102594.78;4971037;28;20502;-62
2023/05/24 01:13:03;;;;;;;20.70;5.25;;;;;;;8.14;100.00;102590.38;5061642;23;20104;-61
2023/05/24 01:15:56;;;;;;;17.33;4.88;;;;;;;8.03;100.00;102585.94;4997702;28;20411;-58
2023/05/24 01:18:30;;;;;;;17.35;4.60;;;;;;;8.02;100.00;102597.31;4972964;28;20041;-60
2023/05/24 01:21:31;;;;;;;17.42;4.68;;;;;;;8.09;100.00;102601.72;4996025;28;20030;-61
2023/05/24 01:24:02;;;;;;;21.17;5.13;;;;;;;8.07;100.00;102595.59;4987068;28;20431;-60
2023/05/24 01:26:42;;;;;;;22.10;4.50;;;;;;;8.02;100.00;102599.94;4988630;28;20026;-61
2023/05/24 01:29:09;;;;;;;16.50;4.55;;;;;;;8.01;100.00;102600.81;5003895;28;20030;-61
2023/05/24 01:31:35;;;;;;;23.55;4.63;;;;;;;7.96;100.00;102603.44;4992189;28;20032;-60
2023/05/24 01:34:00;;;;;;;20.67;4.38;;;;;;;7.93;100.00;102602.53;4990012;28;20085;-60
2023/05/24 01:36:26;;;;;;;17.30;4.15;;;;;;;7.95;100.00;102603.41;4988788;28;20034;-60
2023/05/24 01:38:51;;;;;;;16.17;4.47;;;;;;;7.95;100.00;102598.16;4988895;28;20031;-60
2023/05/24 01:41:40;;;;;;;17.20;5.70;;;;;;;8.01;100.00;102600.81;5009727;28;20030;-59
2023/05/24 01:44:26;;;;;;;20.27;4.70;;;;;;;7.99;100.00;102594.69;5009042;28;20049;-60
2023/05/24 01:47:15;;;;;;;19.65;4.70;;;;;;;7.96;100.00;102606.06;5007191;28;20068;-63
2023/05/24 01:49:45;;;;;;;24.15;5.15;;;;;;;8.00;100.00;102606.94;5020103;28;20053;-60
2023/05/24 01:52:12;;;;;;;21.80;4.38;;;;;;;7.96;100.00;102605.16;4987651;28;20724;-61
2023/05/24 01:54:42;;;;;;;26.65;5.13;;;;;;;7.93;100.00;102598.16;4988146;28;20029;-61
2023/05/24 01:57:09;;;;;;;24.25;4.93;;;;;;;7.91;100.00;102601.63;4988721;28;20037;-61
2023/05/24 01:59:35;;;;;;;23.58;5.45;;;;;;;7.89;100.00;102603.38;4988771;28;20042;-57
2023/05/24 02:02:01;;;;;;;20.45;4.45;;;;;;;7.88;100.00;102594.63;5000838;28;20032;-62
2023/05/24 02:04:26;;;;;;;17.23;5.13;;;;;;;7.85;100.00;102581.47;4997436;28;20059;-59
2023/05/24 02:06:52;;;;;;;16.83;4.95;;;;;;;7.82;100.00;102582.34;4989467;28;20086;-61
2023/05/24 02:09:17;;;;;;;13.88;5.47;;;;;;;7.82;100.00;102582.34;4989127;28;20460;-62
2023/05/24 02:11:42;;;;;;;18.00;4.80;;;;;;;7.83;100.00;102581.47;4990422;28;20056;-64
2023/05/24 02:14:08;;;;;;;15.45;4.75;;;;;;;7.89;100.00;102588.50;4988935;28;20036;-61
2023/05/24 02:16:33;;;;;;;19.92;4.95;;;;;;;7.86;100.00;102583.25;4988891;28;20122;-60
2023/05/24 02:18:58;;;;;;;17.75;5.60;;;;;;;7.85;100.00;102570.97;4988108;28;20113;-61
2023/05/24 02:21:24;;;;;;;20.48;5.30;;;;;;;7.91;100.00;102573.63;4989391;28;20109;-62
2023/05/24 02:23:50;;;;;;;18.08;5.32;;;;;;;7.94;100.00;102565.78;4989412;28;20469;-59
2023/05/24 02:26:17;;;;;;;29.80;5.93;;;;;;;7.93;100.00;102573.66;4990612;28;20026;-60
2023/05/24 02:28:42;;;;;;;15.50;5.25;;;;;;;7.97;100.00;102570.16;5007832;28;20026;-62
2023/05/24 02:31:08;;;;;;;21.90;6.07;;;;;;;8.02;100.00;102573.69;4999425;28;20557;-59
2023/05/24 02:33:34;;;;;;;22.25;4.53;;;;;;;7.98;100.00;102577.19;4988848;28;20030;-59
2023/05/24 02:36:00;;;;;;;13.95;5.00;;;;;;;7.97;100.00;102585.91;4987673;28;20032;-59
2023/05/24 02:38:25;;;;;;;23.75;5.80;;;;;;;7.96;100.00;102573.66;4989389;28;20054;-60
2023/05/24 02:40:50;;;;;;;14.05;4.55;;;;;;;7.92;100.00;102585.03;4987943;28;20125;-61
2023/05/24 02:43:16;;;;;;;19.60;5.82;;;;;;;7.92;100.00;102585.03;4988387;28;20022;-60
2023/05/24 02:45:42;;;;;;;15.73;4.50;;;;;;;7.91;100.00;102583.25;4991117;28;20030;-60
2023/05/24 02:48:07;;;;;;;16.15;4.80;;;;;;;7.82;100.00;102589.31;4989467;28;20049;-59
2023/05/24 02:50:32;;;;;;;16.55;4.65;;;;;;;7.77;100.00;102586.66;4990584;28;20023;-60
2023/05/24 02:52:58;;;;;;;23.05;5.63;;;;;;;7.77;100.00;102586.66;4988526;28;20026;-60
2023/05/24 02:55:23;;;;;;;18.40;5.38;;;;;;;7.75;100.00;102588.44;4988082;28;20112;-57
2023/05/24 02:57:48;;;;;;;23.23;5.15;;;;;;;7.74;100.00;102581.44;4988110;28;20029;-60
2023/05/24 03:00:14;;;;;;;23.88;5.93;;;;;;;7.77;100.00;102588.44;4989236;28;20034;-58
2023/05/24 03:02:40;;;;;;;14.40;5.30;;;;;;;7.75;100.00;102585.81;4988942;28;20476;-58
2023/05/24 03:05:06;;;;;;;16.77;5.13;;;;;;;7.70;100.00;102583.16;4989073;28;20057;-60
2023/05/24 03:07:31;;;;;;;19.58;5.32;;;;;;;7.71;100.00;102581.41;4991137;28;20084;-60
2023/05/24 03:09:57;;;;;;;15.10;5.50;;;;;;;7.67;100.00;102592.72;4988206;28;20022;-59
2023/05/24 03:12:22;;;;;;;23.73;5.20;;;;;;;7.61;100.00;102587.47;4993314;28;20095;-58
2023/05/24 03:14:47;;;;;;;14.02;5.10;;;;;;;7.58;100.00;102583.94;5003649;28;20030;-62
2023/05/24 03:17:13;;;;;;;19.60;5.70;;;;;;;7.54;100.00;102576.03;4987977;28;20027;-61
2023/05/24 03:19:38;;;;;;;12.93;4.72;;;;;;;7.52;100.00;102573.41;4988812;28;20041;-60
2023/05/24 03:22:03;;;;;;;18.67;5.55;;;;;;;7.52;100.00;102573.41;4987928;28;20064;-60
2023/05/24 03:24:29;;;;;;;18.38;5.30;;;;;;;7.52;100.00;102569.88;4987886;28;20109;-59
2023/05/24 03:26:54;;;;;;;25.38;5.35;;;;;;;7.56;100.00;102569.06;4987696;28;20038;-58
2023/05/24 03:29:19;;;;;;;19.73;5.53;;;;;;;7.57;100.00;102566.47;4994636;28;20037;-60
2023/05/24 03:31:45;;;;;;;25.02;5.70;;;;;;;7.59;100.00;102562.06;5007734;28;20054;-60
2023/05/24 03:34:10;;;;;;;32.28;6.25;;;;;;;7.62;100.00;102562.97;5007396;28;20026;-59
2023/05/24 03:36:35;;;;;;;25.63;5.82;;;;;;;7.63;100.00;102559.47;5007633;28;20051;-61
2023/05/24 03:39:03;;;;;;;22.73;5.30;;;;;;;7.66;100.00;102565.63;5007878;28;20092;-59
2023/05/24 03:41:29;;;;;;;26.67;5.55;;;;;;;7.66;100.00;102560.38;5007806;28;20568;-60
2023/05/24 03:43:54;;;;;;;21.55;5.32;;;;;;;7.68;100.00;102565.66;5002052;28;20030;-60
2023/05/24 03:46:19;;;;;;;23.98;6.40;;;;;;;7.68;100.00;102563.88;5003654;28;20031;-59
2023/05/24 03:48:45;;;;;;;18.65;5.88;;;;;;;7.67;100.00;102561.25;4987518;28;20081;-58
2023/05/24 03:51:10;;;;;;;19.13;5.55;;;;;;;7.73;100.00;102565.69;4988782;28;20365;-60
2023/05/24 03:53:35;;;;;;;16.60;5.32;;;;;;;7.74;100.00;102562.19;4992411;28;20058;-58
2023/05/24 03:56:01;;;;;;;19.63;5.43;;;;;;;7.72;100.00;102562.16;4992326;28;20384;-58
2023/05/24 03:58:26;;;;;;;23.65;5.97;;;;;;;7.71;100.00;102557.78;4990920;28;20023;-58
2023/05/24 04:00:52;;;;;;;26.60;6.00;;;;;;;7.71;100.00;102561.28;4999689;28;20033;-61
2023/05/24 04:03:18;;;;;;;17.98;5.30;;;;;;;7.74;100.00;102572.66;5010595;28;20065;-61
2023/05/24 04:05:44;;;;;;;18.67;5.43;;;;;;;7.77;100.00;102576.16;5008374;28;20538;-60
2023/05/24 04:08:09;;;;;;;26.17;5.72;;;;;;;7.84;100.00;102585.88;5011291;28;20038;-60
2023/05/24 04:10:35;;;;;;;20.60;6.15;;;;;;;7.89;100.00;102587.63;5008221;28;20421;-59
2023/05/24 04:13:00;;;;;;;22.48;5.13;;;;;;;7.93;100.00;102581.53;4997226;28;20053;-60
2023/05/24 04:15:26;;;;;;;25.33;6.13;;;;;;;8.00;100.00;102582.44;5006220;28;20022;-61
2023/05/24 04:17:54;;;;;;;25.25;6.05;;;;;;;8.04;100.00;102582.44;5010617;28;20442;-60
2023/05/24 04:20:24;;;;;;;30.30;7.03;;;;;;;8.11;100.00;102582.47;5011653;28;20050;-60
2023/05/24 04:22:49;;;;;;;14.20;5.72;;;;;;;8.17;100.00;102588.66;5010977;28;20058;-61
2023/05/24 04:25:14;;;;;;;28.58;6.22;;;;;;;8.22;100.00;102586.06;5010958;28;20526;-61
2023/05/24 04:27:40;;;;;;;23.48;5.75;;;;;;;8.34;100.00;102585.22;5010441;28;20022;-61
2023/05/24 04:30:08;;;;;;;21.15;6.32;;;;;;;8.39;100.00;102593.09;5010599;28;20072;-60
2023/05/24 04:32:33;;;;;;;21.48;6.30;;;;;;;8.46;100.00;102584.38;5010750;28;20026;-62
2023/05/24 04:34:58;;;;;;;20.92;5.78;;;;;;;8.58;100.00;102581.81;5010701;28;20080;-60
2023/05/24 04:37:23;;;;;;;20.35;6.20;;;;;;;8.68;100.00;102581.84;5010799;28;20040;-59
2023/05/24 04:39:49;;;;;;;24.77;7.53;;;;;;;8.81;100.00;102575.72;5010488;28;20036;-58
2023/05/24 04:42:14;;;;;;;21.23;5.40;;;;;;;8.93;100.00;102577.50;4994933;28;20034;-60
2023/05/24 04:44:40;;;;;;;21.00;5.45;;;;;;;9.01;100.00;102577.50;4992486;28;20026;-60
2023/05/24 04:47:06;;;;;;;23.23;5.93;;;;;;;9.08;100.00;102583.63;5013692;28;20049;-61
2023/05/24 04:49:31;;;;;;;23.67;5.95;;;;;;;9.20;100.00;102580.13;4992323;28;20588;-60
2023/05/24 04:51:56;;;;;;;18.90;5.60;;;;;;;9.21;100.00;102573.97;4993590;28;20037;-60
2023/05/24 04:54:22;;;;;;;17.73;5.20;;;;;;;9.26;100.00;102574.88;4998869;28;20513;-60
2023/05/24 04:56:48;;;;;;;23.98;5.35;;;;;;;9.29;100.00;102576.59;4996211;28;20393;-61
2023/05/24 04:59:13;;;;;;;23.27;5.50;;;;;;;9.36;100.00;102575.72;4993637;28;20081;-62
2023/05/24 05:01:39;;;;;;;21.65;5.80;;;;;;;9.49;100.00;102573.97;5010526;28;20069;-60
2023/05/24 05:04:04;;;;;;;28.60;5.07;;;;;;;9.53;100.00;102573.09;4988808;28;20471;-60
2023/05/24 05:06:30;;;;;;;29.02;6.28;;;;;;;9.55;100.00;102571.34;4988915;28;20072;-61
2023/05/24 05:08:55;;;;;;;16.75;4.88;;;;;;;9.60;100.00;102571.31;4991066;28;20033;-60
2023/05/24 05:11:21;;;;;;;20.58;5.20;;;;;;;9.66;100.00;102565.19;4990280;28;20030;-58
2023/05/24 05:13:46;;;;;;;22.85;5.80;;;;;;;9.70;100.00;102573.03;4989781;28;20100;-59
2023/05/24 05:16:12;;;;;;;19.33;5.28;;;;;;;9.82;100.00;102566.00;4990794;28;20062;-61
2023/05/24 05:18:37;;;;;;;22.85;4.65;;;;;;;9.89;100.00;102569.47;5008400;28;20034;-59
2023/05/24 05:21:02;;;;;;;16.58;4.68;;;;;;;9.88;100.00;102575.63;4990182;28;20504;-59
2023/05/24 05:23:28;;;;;;;16.85;4.68;;;;;;;9.93;100.00;102577.38;5004713;28;20049;-61
2023/05/24 05:25:54;;;;;;;18.75;5.38;;;;;;;10.05;100.00;102571.19;4990362;28;20400;-58
2023/05/24 05:28:19;;;;;;;17.77;5.22;;;;;;;10.18;100.00;102572.00;4989662;28;20023;-60
2023/05/24 05:30:45;;;;;;;21.73;5.13;;;;;;;10.28;100.00;102570.22;4989283;28;20082;-60
2023/05/24 05:33:10;;;;;;;14.25;4.50;;;;;;;10.33;100.00;102578.97;4995849;28;20045;-61
2023/05/24 05:35:35;;;;;;;20.25;4.93;;;;;;;10.44;100.00;102578.91;5009673;28;20560;-60
2023/05/24 05:38:01;;;;;;;25.83;4.93;;;;;;;10.67;100.00;102582.34;5008816;28;20042;-61
2023/05/24 05:40:26;;;;;;;20.73;4.43;;;;;;;10.79;100.00;102582.25;5008950;28;20417;-60
2023/05/24 05:42:51;;;;;;;25.20;4.55;;;;;;;11.00;100.00;102575.06;5008488;28;20460;-61
2023/05/24 05:45:17;;;;;;;15.45;4.55;;;;;;;11.19;100.00;102582.81;5008955;28;20488;-60
2023/05/24 05:47:42;;;;;;;19.73;4.70;;;;;;;11.40;100.00;102583.53;5009549;28;20480;-62
2023/05/24 05:50:08;;;;;;;19.83;4.78;;;;;;;11.53;100.00;102584.31;5008686;28;20424;-60
2023/05/24 05:52:33;;;;;;;21.70;4.85;;;;;;;11.57;100.00;102584.25;5008747;28;20033;-61
2023/05/24 05:54:59;;;;;;;23.52;4.60;;;;;;;11.75;100.00;102585.81;4994202;28;20049;-62
2023/05/24 05:57:25;;;;;;;18.15;4.68;;;;;;;11.95;100.00;102592.63;4988538;28;20026;-59
2023/05/24 05:59:50;;;;;;;23.95;4.30;;;;;;;12.13;100.00;102588.94;4989452;28;20030;-62
2023/05/24 06:02:17;;;;;;;19.20;4.88;;;;;;;12.38;100.00;102593.03;4989284;28;20397;-61
2023/05/24 06:04:43;;;;;;;20.40;4.22;;;;;;;12.67;100.00;102591.75;4991383;28;20041;-60
2023/05/24 06:07:08;;;;;;;22.02;4.68;;;;;;;12.84;100.00;102587.97;5006079;28;20026;-60
2023/05/24 06:09:33;;;;;;;22.50;4.47;;;;;;;13.04;100.00;102597.38;4996486;28;20416;-61
2023/05/24 06:11:59;;;;;;;15.90;4.57;;;;;;;13.20;100.00;102598.00;4992310;28;20492;-60
2023/05/24 06:14:24;;;;;;;24.15;4.63;;;;;;;13.26;100.00;102597.91;4993475;28;20034;-61
2023/05/24 06:16:51;;;;;;;26.77;5.50;;;;;;;13.28;100.00;102598.75;5003385;28;20018;-61
2023/05/24 06:19:17;;;;;;;25.73;4.95;;;;;;;13.15;100.00;102603.34;4997427;28;20021;-59
2023/05/24 06:21:46;;;;;;;24.75;5.68;;;;;;;13.03;100.00;102593.84;4992514;28;20036;-63
2023/05/24 06:24:22;;;;;;;19.80;4.63;;;;;;;13.03;100.00;102607.09;4997555;28;20018;-59
2023/05/24 06:26:49;;;;;;;31.15;5.70;;;;;;;13.14;100.00;102601.63;4994950;28;20037;-60
2023/05/24 06:29:14;;;;;;;25.23;5.18;;;;;;;13.26;100.00;102598.78;4996090;28;20036;-63
2023/05/24 06:31:40;;;;;;;20.15;5.22;;;;;;;13.44;100.00;102609.06;4989055;28;20022;-60
2023/05/24 06:34:05;;;;;;;20.02;4.95;;;;;;;13.61;100.00;102601.72;5002531;28;20027;-60
2023/05/24 06:36:41;;;;;;;21.33;5.13;;;;;;;13.70;100.00;102605.97;4987705;28;20069;-60
2023/05/24 06:39:09;;;;;;;29.85;4.97;;;;;;;13.87;100.00;102605.66;4988564;28;20027;-61
2023/05/24 06:41:36;;;;;;;17.75;4.38;;;;;;;14.15;100.00;102601.59;4987529;28;20323;-60
2023/05/24 06:44:01;;;;;;;23.50;4.10;;;;;;;14.44;100.00;102596.53;4985863;28;20026;-61
2023/05/24 06:46:26;;;;;;;23.08;4.97;;;;;;;14.27;100.00;102596.00;4996014;28;20057;-60
2023/05/24 06:48:52;;;;;;;22.88;5.22;;;;;;;14.27;100.00;102605.75;5006524;28;20029;-62
2023/05/24 06:51:17;;;;;;;25.25;4.97;;;;;;;14.40;100.00;102604.59;4998380;28;20379;-61
2023/05/24 06:53:43;;;;;;;19.15;4.53;;;;;;;14.46;100.00;102600.03;4990305;28;20029;-63
2023/05/24 06:56:09;;;;;;;23.90;4.32;;;;;;;14.28;100.00;102597.78;5001943;28;20367;-62
2023/05/24 06:58:35;;;;;;;25.55;3.85;;;;;;;14.28;100.00;102602.19;5001750;28;20034;-59
2023/05/24 07:01:01;;;;;;;17.17;3.40;;;;;;;14.47;100.00;102596.47;4992506;28;20057;-61
2023/05/24 07:03:26;;;;;;;13.77;3.78;;;;;;;14.65;100.00;102596.06;5004142;28;20530;-60
2023/05/24 07:05:52;;;;;;;19.13;4.05;;;;;;;14.77;100.00;102597.56;5006155;28;20034;-60
2023/05/24 07:08:17;;;;;;;18.90;4.10;;;;;;;14.74;100.00;102597.63;4992117;28;20050;-62
2023/05/24 07:10:43;;;;;;;19.13;3.50;;;;;;;14.50;100.00;102596.41;4988995;28;20396;-63
2023/05/24 07:13:12;;;;;;;21.48;3.60;;;;;;;14.57;100.00;102592.69;4992487;28;20507;-60
2023/05/24 07:15:38;;;;;;;20.95;3.60;;;;;;;14.46;100.00;102590.31;5007719;28;20026;-60
2023/05/24 07:18:04;;;;;;;18.42;3.60;;;;;;;14.81;100.00;102595.72;5000456;28;20061;-60
2023/05/24 07:20:29;;;;;;;16.40;3.95;;;;;;;14.94;100.00;102604.28;4989254;28;20026;-61
2023/05/24 07:22:55;;;;;;;21.00;3.83;;;;;;;15.16;100.00;102601.97;4992354;28;20026;-60
2023/05/24 07:25:21;;;;;;;21.70;3.90;;;;;;;15.32;99.67;102606.88;4987163;28;20117;-61
2023/05/24 07:27:47;;;;;;;16.55;4.07;;;;;;;15.49;98.82;102601.13;5004139;28;20048;-60
2023/05/24 07:30:12;;;;;;;12.93;3.35;;;;;;;15.44;97.49;102599.53;5006449;28;20046;-64
2023/05/24 07:32:38;;;;;;;20.50;2.95;;;;;;;15.40;97.44;102593.41;5003280;28;20117;-61
2023/05/24 07:35:04;;;;;;;15.82;3.35;;;;;;;15.42;97.70;102604.88;4987098;28;20385;-61
2023/05/24 07:37:29;;;;;;;19.27;4.28;;;;;;;15.07;99.78;102614.59;5001731;28;20029;-60
2023/05/24 07:39:55;;;;;;;19.08;3.83;;;;;;;15.14;100.00;102610.91;5006317;28;20113;-61
2023/05/24 07:42:20;;;;;;;21.40;3.15;;;;;;;15.14;99.56;102614.41;5006139;28;20037;-60
2023/05/24 07:44:46;;;;;;;18.90;3.90;;;;;;;15.43;97.48;102605.72;5006435;28;20026;-61
2023/05/24 07:47:11;;;;;;;22.02;3.92;;;;;;;15.98;95.53;102610.50;5006735;28;20029;-60
2023/05/24 07:49:36;;;;;;;18.67;3.90;;;;;;;15.83;94.65;102607.31;4996583;28;20018;-58
2023/05/24 07:52:03;;;;;;;18.00;3.78;;;;;;;16.10;94.28;102611.94;4984923;28;20042;-61
2023/05/24 07:54:28;;;;;;;15.98;3.67;;;;;;;16.20;92.96;102609.84;4983634;28;20062;-62
2023/05/24 07:56:54;;;;;;;16.83;3.33;;;;;;;15.75;96.95;102604.84;4983143;28;20097;-60
2023/05/24 07:59:19;;;;;;;17.77;4.07;;;;;;;16.19;93.82;102608.13;4984729;28;20315;-61
2023/05/24 08:01:46;;;;;;;23.08;4.07;;;;;;;15.89;94.73;102600.94;4994876;28;20098;-61
2023/05/24 08:04:12;;;;;;;12.63;3.08;;;;;;;15.98;94.23;102606.03;5004746;28;20049;-60
2023/05/24 08:06:37;;;;;;;17.92;3.97;;;;;;;15.86;94.46;102609.88;5002871;28;20030;-61
2023/05/24 08:09:04;;;;;;;13.27;3.58;;;;;;;15.85;94.29;102605.47;5005134;28;20079;-60
2023/05/24 08:11:29;;;;;;;20.08;3.92;;;;;;;15.70;94.95;102609.44;5000735;28;20057;-61
2023/05/24 08:13:54;;;;;;;18.20;3.65;;;;;;;15.81;94.73;102609.16;4997312;28;20061;-63
2023/05/24 08:16:20;;;;;;;18.02;3.58;;;;;;;15.94;95.11;102608.78;4993380;28;20026;-61
2023/05/24 08:18:45;;;;;;;16.00;4.03;;;;;;;15.90;94.33;102605.34;5000521;28;20045;-61
2023/05/24 08:21:11;;;;;;;14.45;3.67;;;;;;;15.99;94.14;102612.22;4998709;28;20022;-61
2023/05/24 08:23:36;;;;;;;14.23;3.70;;;;;;;16.12;93.29;102607.41;4994898;28;20034;-61
2023/05/24 08:26:02;;;;;;;14.50;3.20;;;;;;;16.26;93.33;102599.91;4994295;28;20054;-61
2023/05/24 08:28:28;;;;;;;13.30;3.47;;;;;;;16.26;93.15;102599.03;4988891;28;20165;-60
2023/05/24 08:30:53;;;;;;;18.38;4.05;;;;;;;16.32;94.51;102598.88;4986153;28;20050;-61
2023/05/24 08:33:18;;;;;;;16.25;3.28;;;;;;;16.11;92.46;102597.72;4989835;28;20120;-60
2023/05/24 08:35:44;;;;;;;19.30;3.60;;;;;;;15.86;93.96;102596.59;5002245;28;20022;-62
2023/05/24 08:38:09;;;;;;;20.27;4.47;;;;;;;15.63;94.49;102592.78;4988999;28;20058;-59
2023/05/24 08:40:35;;;;;;;16.80;3.28;;;;;;;15.50;96.29;102588.72;5010676;28;20053;-61
2023/05/24 08:43:01;;;;;;;18.35;3.92;;;;;;;15.65;95.00;102596.28;4999866;28;20014;-61
2023/05/24 08:45:29;;;;;;;14.30;4.28;;;;;;;15.78;94.66;102588.81;5002256;28;20061;-61
2023/05/24 08:47:56;;;;;;;17.80;3.87;;;;;;;15.98;94.21;102595.41;4999118;28;20484;-63
2023/05/24 08:50:21;;;;;;;14.80;3.35;;;;;;;15.72;94.27;102597.00;4993585;28;20297;-60
2023/05/24 08:52:48;;;;;;;17.98;3.55;;;;;;;15.97;94.32;102595.44;4999400;28;20018;-61
2023/05/24 08:55:13;;;;;;;14.27;3.40;;;;;;;15.82;92.40;102597.59;4996306;28;20088;-61
2023/05/24 08:57:40;;;;;;;13.32;3.58;;;;;;;15.86;91.02;102595.72;4996409;28;20021;-60
2023/05/24 09:00:10;;;;;;;22.75;4.53;;;;;;;15.93;92.86;102597.28;4998338;28;20025;-61
2023/05/24 09:02:37;;;;;;;12.98;3.30;;;;;;;16.15;91.61;102594.91;4997703;28;20026;-62
2023/05/24 09:05:03;;;;;;;15.20;3.53;;;;;;;16.36;87.78;102595.19;4995276;28;20034;-61
2023/05/24 09:07:29;;;;;;;14.98;3.28;;;;;;;16.64;88.65;102596.97;5006029;28;20025;-62
2023/05/24 09:10:04;;;;;;;11.52;2.83;;;;;;;16.77;86.18;102592.13;4994669;28;20057;-60
2023/05/24 09:12:31;;;;;;;14.50;3.50;;;;;;;16.76;85.48;102593.06;4995278;28;20152;-62
2023/05/24 09:14:57;;;;;;;16.40;3.63;;;;;;;16.90;86.52;102591.75;4997226;28;20046;-60
2023/05/24 09:17:23;;;;;;;12.27;2.97;;;;;;;16.86;86.40;102596.28;4999455;28;20030;-62
2023/05/24 09:19:50;;;;;;;12.57;3.00;;;;;;;16.86;85.27;102601.59;5005046;28;20073;-62
2023/05/24 09:22:22;;;;;;;11.85;3.35;;;;;;;16.64;84.09;102593.44;4998407;28;20017;-60
2023/05/24 09:24:48;;;;;;;23.23;3.60;;;;;;;16.86;84.42;102598.09;4996741;28;20105;-61
2023/05/24 09:27:20;;;;;;;15.40;3.55;;;;;;;16.79;84.67;102597.41;5001955;28;20423;-61
2023/05/24 09:29:47;;;;;;;13.75;3.72;;;;;;;16.76;85.91;102587.72;5008645;28;20052;-62
2023/05/24 09:32:13;;;;;;;13.23;3.45;;;;;;;16.91;86.89;102586.38;5001134;28;20425;-60
2023/05/24 09:34:40;;;;;;;10.50;2.85;;;;;;;17.32;83.90;102585.06;4994707;28;20080;-61
2023/05/24 09:37:08;;;;;;;14.32;3.25;;;;;;;17.30;84.28;102582.44;4989173;28;20030;-61
2023/05/24 09:39:33;;;;;;;17.02;3.63;;;;;;;17.39;83.99;102586.56;4997413;28;20034;-60
2023/05/24 09:42:00;;;;;;;15.50;3.45;;;;;;;17.30;83.16;102589.53;5002366;28;20244;-59
2023/05/24 09:44:28;;;;;;;10.68;2.80;;;;;;;17.20;82.63;102585.47;5001789;28;20113;-61
2023/05/24 09:47:01;;;;;;;12.75;3.33;;;;;;;17.38;80.53;102579.50;4989595;28;20034;-60
2023/05/24 09:49:27;;;;;;;11.18;3.25;;;;;;;17.43;80.74;102572.22;5003212;28;20033;-61
2023/05/24 09:51:52;;;;;;;11.80;3.28;;;;;;;17.35;80.69;102568.06;4986614;28;20489;-59
2023/05/24 09:54:19;;;;;;;18.38;3.92;;;;;;;17.06;82.24;102562.81;4993541;28;20057;-60
2023/05/24 09:56:45;;;;;;;15.18;3.53;;;;;;;17.03;83.42;102568.22;4986199;28;20076;-60
2023/05/24 09:59:10;;;;;;;13.90;3.60;;;;;;;17.21;82.54;102566.75;4986502;28;20034;-60
2023/05/24 10:01:36;;;;;;;16.00;3.65;;;;;;;17.17;81.85;102571.34;5000795;28;20497;-61
2023/05/24 10:04:01;;;;;;;13.48;3.42;;;;;;;17.10;83.03;102567.13;4985351;28;20319;-59
2023/05/24 10:06:28;;;;;;;12.65;3.30;;;;;;;17.48;82.31;102572.06;4986913;28;20030;-60
2023/05/24 10:08:54;;;;;;;21.88;3.28;;;;;;;17.26;83.77;102564.81;4987866;28;20026;-62
2023/05/24 10:11:20;;;;;;;17.67;3.85;;;;;;;17.64;81.76;102564.38;5001569;28;20388;-64
2023/05/24 10:13:47;;;;;;;14.23;3.30;;;;;;;17.83;80.23;102569.03;5006222;28;20097;-60
2023/05/24 10:16:12;;;;;;;13.48;3.40;;;;;;;17.68;81.46;102570.47;4993373;28;20058;-63
2023/05/24 10:18:37;;;;;;;10.80;3.22;;;;;;;17.55;79.76;102570.91;4989092;28;20193;-62
2023/05/24 10:21:07;;;;;;;11.95;3.20;;;;;;;17.42;79.79;102567.81;4989924;28;20030;-61
2023/05/24 10:23:33;;;;;;;15.68;3.47;;;;;;;17.53;80.15;102571.88;4989998;28;20065;-61
2023/05/24 10:26:07;;;;;;;8.10;2.95;;;;;;;17.10;81.68;102564.47;5004150;28;20085;-61
2023/05/24 10:28:47;;;;;;;14.20;3.45;;;;;;;17.27;81.19;102557.69;4990704;28;20022;-62
2023/05/24 10:31:25;;;;;;;14.27;3.42;;;;;;;17.84;79.63;102564.56;4994451;28;20189;-62
2023/05/24 10:33:51;;;;;;;9.60;3.27;;;;;;;17.89;77.93;102562.59;5006407;28;20018;-61
2023/05/24 10:36:17;;;;;;;15.05;3.55;;;;;;;17.83;79.09;102563.69;4989166;28;20114;-61
2023/05/24 10:38:45;;;;;;;15.38;3.47;;;;;;;17.77;80.25;102574.59;4987489;28;20037;-63
2023/05/24 10:41:11;;;;;;;14.63;3.35;;;;;;;18.03;80.63;102562.94;4987441;28;20026;-60
2023/05/24 10:43:37;;;;;;;13.88;3.20;;;;;;;18.40;78.75;102562.47;4987784;28;20026;-61
2023/05/24 10:46:03;;;;;;;17.25;3.22;;;;;;;18.28;77.45;102562.03;4987683;28;20070;-60
2023/05/24 10:48:29;;;;;;;16.88;3.30;;;;;;;18.60;75.98;102558.97;4989898;28;20026;-63
2023/05/24 10:50:55;;;;;;;13.15;2.83;;;;;;;18.36;77.98;102566.19;4988627;28;20532;-61
2023/05/24 10:53:26;;;;;;;14.13;3.78;;;;;;;18.49;77.44;102556.78;4989586;28;20030;-61
2023/05/24 10:55:52;;;;;;;15.07;3.25;;;;;;;18.71;74.82;102550.53;5004559;28;20028;-60
2023/05/24 10:58:18;;;;;;;19.95;3.72;;;;;;;18.67;78.52;102543.59;4993046;28;20399;-61
2023/05/24 11:00:44;;;;;;;13.23;3.45;;;;;;;18.66;80.35;102548.06;4987345;28;20038;-63
2023/05/24 11:03:11;;;;;;;17.88;3.80;;;;;;;18.86;76.84;102554.38;4990722;28;20026;-62
2023/05/24 11:05:45;;;;;;;12.50;3.60;;;;;;;18.94;76.36;102554.06;4998431;28;20105;-66
2023/05/24 11:08:10;;;;;;;13.45;3.65;;;;;;;18.55;78.34;102555.66;4997943;28;20366;-61
2023/05/24 11:10:36;;;;;;;19.80;3.78;;;;;;;18.68;79.05;102548.88;4989507;28;20025;-63
2023/05/24 11:13:02;;;;;;;17.23;3.65;;;;;;;18.62;80.76;102551.78;4991512;28;20054;-62
2023/05/24 11:15:29;;;;;;;17.00;3.78;;;;;;;18.68;80.68;102558.69;4993453;28;20139;-64